Ahmedabad, India

6:03 PM IST on November 01, 2014 (GMT +0530)
Ahmedabad | Change Station
CLOSE
Current Station
Airport
Location: Ahmedabad,
Elevation: 180 ft
Nearby Weather Stations

Elev 180 ft 23.08 °N, 72.63 °E | Updated 23 minutes ago

Smoke
Smoke
91 °F
Feels Like 93 °F
N
4
Wind Variable Wind from North

Today
High -- | Low -- °F
--% Chance of Precip.
Yesterday
High -- | Low -- °F
Precip. -- in
6:44 AM 6:01 PM
Waxing Gibbous, 66% visible
Pressure 29.83 in
Visibility 3.1 miles
Clouds Scattered Clouds 8000 ft
Heat Index 93 °F
Dew Point 64 °F
Humidity 41%
Rainfall 0.00 in
Snow Depth Not available.
UV 0 out of 12
Pollen Not available.
Air Quality Not available.
Flu Activity Not available.
METAR VAAH 011210Z 01003KT 5000 FU SCT080 33/18 Q1010 BECMG 4000

More Conditions Fewer Conditions

Pressure 29.83 in
Visibility 3.1 miles
Clouds Scattered Clouds 8000 ft
Heat Index 93 °F
Dew Point 64 °F
Humidity 41%
Rainfall 0.00 in
Snow Depth Not available.
UV 0 out of 12
Pollen Not available.
Air Quality Not available.
Flu Activity Not available.
METAR VAAH 011210Z 01003KT 5000 FU SCT080 33/18 Q1010 BECMG 4000

More Conditions Fewer Conditions

10-Day Weather Forecast

Almanac

Astronomy

Nov. 01, 2014 Rise Set
Actual Time
Civil Twilight
Nautical Twilight
Astronomical Twilight
Moon
Length of Visible Light
Length of Day
Tomorrow will be .
, % of the Moon is Illuminated

Today's Extremes

Country Highs Country Lows

Community

WunderPhotos

Upload Photos

1,766,912 photos uploaded!

WunderBlogs® & News

Nearby

Air Quality

  Air Quality AQ Index Pollutant
Not available.

Snow Depth

Station Depth Elevation

Earthquake Activity

City Distance Mag. Time & Date
Minimum magnitude displayed is 2.5.

Coastal Water Temperatures

Place Temperature

Nearby Weather Stations